sensor_id;sensor_type;location;lat;lon;timestamp;P1;durP1;ratioP1;P2;durP2;ratioP2
36351;SDS011;22382;44.768;17.206;2023-03-30T00:01:17;25.67;;;13.65;;
36351;SDS011;22382;44.768;17.206;2023-03-30T00:03:45;29.48;;;15.60;;
36351;SDS011;22382;44.768;17.206;2023-03-30T00:06:14;28.90;;;15.63;;
36351;SDS011;22382;44.768;17.206;2023-03-30T00:08:49;31.30;;;16.75;;
36351;SDS011;22382;44.768;17.206;2023-03-30T00:11:19;33.90;;;18.52;;
36351;SDS011;22382;44.768;17.206;2023-03-30T00:13:48;34.42;;;17.25;;
36351;SDS011;22382;44.768;17.206;2023-03-30T00:16:16;34.85;;;17.70;;
36351;SDS011;22382;44.768;17.206;2023-03-30T00:18:44;39.17;;;18.27;;
36351;SDS011;22382;44.768;17.206;2023-03-30T00:21:11;36.60;;;18.30;;
36351;SDS011;22382;44.768;17.206;2023-03-30T00:23:38;29.25;;;17.25;;
36351;SDS011;22382;44.768;17.206;2023-03-30T00:26:05;33.88;;;17.95;;
36351;SDS011;22382;44.768;17.206;2023-03-30T00:28:33;34.42;;;18.63;;
36351;SDS011;22382;44.768;17.206;2023-03-30T00:31:00;33.40;;;16.17;;
36351;SDS011;22382;44.768;17.206;2023-03-30T00:33:28;37.22;;;18.63;;
36351;SDS011;22382;44.768;17.206;2023-03-30T00:36:11;38.35;;;19.00;;
36351;SDS011;22382;44.768;17.206;2023-03-30T00:38:39;37.60;;;17.55;;
36351;SDS011;22382;44.768;17.206;2023-03-30T00:41:06;35.15;;;19.98;;
36351;SDS011;22382;44.768;17.206;2023-03-30T00:43:53;34.78;;;17.33;;
36351;SDS011;22382;44.768;17.206;2023-03-30T00:46:22;32.33;;;17.70;;
36351;SDS011;22382;44.768;17.206;2023-03-30T00:48:49;29.83;;;17.90;;
36351;SDS011;22382;44.768;17.206;2023-03-30T00:51:17;38.15;;;18.83;;
36351;SDS011;22382;44.768;17.206;2023-03-30T00:53:46;32.95;;;16.70;;
36351;SDS011;22382;44.768;17.206;2023-03-30T00:56:16;29.77;;;16.02;;
36351;SDS011;22382;44.768;17.206;2023-03-30T00:58:48;27.33;;;13.88;;
36351;SDS011;22382;44.768;17.206;2023-03-30T01:01:16;26.08;;;13.82;;
36351;SDS011;22382;44.768;17.206;2023-03-30T01:03:51;32.33;;;16.10;;
36351;SDS011;22382;44.768;17.206;2023-03-30T01:06:19;25.75;;;14.57;;
36351;SDS011;22382;44.768;17.206;2023-03-30T01:08:55;28.98;;;16.67;;
36351;SDS011;22382;44.768;17.206;2023-03-30T01:11:26;31.17;;;16.65;;
36351;SDS011;22382;44.768;17.206;2023-03-30T01:13:58;28.67;;;15.55;;
36351;SDS011;22382;44.768;17.206;2023-03-30T01:25:08;27.85;;;15.50;;
36351;SDS011;22382;44.768;17.206;2023-03-30T01:34:00;30.70;;;15.43;;
36351;SDS011;22382;44.768;17.206;2023-03-30T01:47:38;37.38;;;19.13;;
36351;SDS011;22382;44.768;17.206;2023-03-30T01:50:14;33.97;;;19.30;;
36351;SDS011;22382;44.768;17.206;2023-03-30T01:55:35;33.22;;;19.25;;
36351;SDS011;22382;44.768;17.206;2023-03-30T01:58:09;32.88;;;17.63;;
36351;SDS011;22382;44.768;17.206;2023-03-30T02:00:45;33.13;;;17.20;;
36351;SDS011;22382;44.768;17.206;2023-03-30T02:03:17;33.10;;;17.73;;
36351;SDS011;22382;44.768;17.206;2023-03-30T02:05:55;32.97;;;18.10;;
36351;SDS011;22382;44.768;17.206;2023-03-30T02:08:30;37.33;;;19.05;;
36351;SDS011;22382;44.768;17.206;2023-03-30T02:11:00;41.30;;;19.02;;
36351;SDS011;22382;44.768;17.206;2023-03-30T02:13:29;32.05;;;17.65;;
36351;SDS011;22382;44.768;17.206;2023-03-30T02:15:59;36.05;;;18.88;;
36351;SDS011;22382;44.768;17.206;2023-03-30T02:18:37;32.92;;;17.95;;
36351;SDS011;22382;44.768;17.206;2023-03-30T02:21:04;30.17;;;15.00;;
36351;SDS011;22382;44.768;17.206;2023-03-30T02:23:33;20.38;;;10.82;;
36351;SDS011;22382;44.768;17.206;2023-03-30T02:26:04;19.63;;;9.95;;
36351;SDS011;22382;44.768;17.206;2023-03-30T02:28:34;29.15;;;15.90;;
36351;SDS011;22382;44.768;17.206;2023-03-30T02:31:02;45.80;;;23.05;;
36351;SDS011;22382;44.768;17.206;2023-03-30T02:41:49;46.22;;;24.50;;
36351;SDS011;22382;44.768;17.206;2023-03-30T02:44:37;40.28;;;22.38;;
36351;SDS011;22382;44.768;17.206;2023-03-30T02:47:11;38.75;;;20.13;;
36351;SDS011;22382;44.768;17.206;2023-03-30T02:52:36;32.40;;;17.13;;
36351;SDS011;22382;44.768;17.206;2023-03-30T02:55:18;30.55;;;16.30;;
36351;SDS011;22382;44.768;17.206;2023-03-30T02:58:26;28.85;;;13.55;;
36351;SDS011;22382;44.768;17.206;2023-03-30T03:01:10;30.05;;;14.50;;
36351;SDS011;22382;44.768;17.206;2023-03-30T03:03:41;22.88;;;12.20;;
36351;SDS011;22382;44.768;17.206;2023-03-30T03:06:11;23.05;;;13.07;;
36351;SDS011;22382;44.768;17.206;2023-03-30T03:08:41;34.03;;;16.35;;
36351;SDS011;22382;44.768;17.206;2023-03-30T03:11:13;31.58;;;14.80;;
36351;SDS011;22382;44.768;17.206;2023-03-30T03:13:40;25.73;;;14.55;;
36351;SDS011;22382;44.768;17.206;2023-03-30T03:16:08;26.02;;;13.60;;
36351;SDS011;22382;44.768;17.206;2023-03-30T03:18:37;25.35;;;13.45;;
36351;SDS011;22382;44.768;17.206;2023-03-30T03:21:08;22.95;;;13.23;;
36351;SDS011;22382;44.768;17.206;2023-03-30T03:23:39;28.23;;;14.70;;
36351;SDS011;22382;44.768;17.206;2023-03-30T03:26:07;33.10;;;15.32;;
36351;SDS011;22382;44.768;17.206;2023-03-30T03:28:36;29.02;;;14.55;;
36351;SDS011;22382;44.768;17.206;2023-03-30T03:31:04;29.83;;;16.08;;
36351;SDS011;22382;44.768;17.206;2023-03-30T03:33:32;31.25;;;16.00;;
36351;SDS011;22382;44.768;17.206;2023-03-30T03:35:59;26.67;;;14.60;;
36351;SDS011;22382;44.768;17.206;2023-03-30T03:38:27;26.25;;;14.75;;
36351;SDS011;22382;44.768;17.206;2023-03-30T03:40:55;25.65;;;14.80;;
36351;SDS011;22382;44.768;17.206;2023-03-30T03:43:24;24.45;;;14.00;;
36351;SDS011;22382;44.768;17.206;2023-03-30T03:45:51;26.08;;;14.20;;
36351;SDS011;22382;44.768;17.206;2023-03-30T03:48:19;26.17;;;14.25;;
36351;SDS011;22382;44.768;17.206;2023-03-30T03:50:49;32.42;;;14.40;;
36351;SDS011;22382;44.768;17.206;2023-03-30T03:53:18;27.10;;;15.18;;
36351;SDS011;22382;44.768;17.206;2023-03-30T03:55:46;29.05;;;14.32;;
36351;SDS011;22382;44.768;17.206;2023-03-30T03:58:13;25.95;;;13.10;;
36351;SDS011;22382;44.768;17.206;2023-03-30T04:00:41;22.27;;;13.05;;
36351;SDS011;22382;44.768;17.206;2023-03-30T04:03:08;25.13;;;13.15;;
36351;SDS011;22382;44.768;17.206;2023-03-30T04:05:38;21.80;;;13.48;;
36351;SDS011;22382;44.768;17.206;2023-03-30T04:08:06;30.88;;;14.02;;
36351;SDS011;22382;44.768;17.206;2023-03-30T04:10:37;25.60;;;14.30;;
36351;SDS011;22382;44.768;17.206;2023-03-30T04:13:06;27.63;;;14.38;;
36351;SDS011;22382;44.768;17.206;2023-03-30T04:15:33;27.17;;;15.30;;
36351;SDS011;22382;44.768;17.206;2023-03-30T04:18:00;29.65;;;14.50;;
36351;SDS011;22382;44.768;17.206;2023-03-30T04:20:28;25.52;;;15.30;;
36351;SDS011;22382;44.768;17.206;2023-03-30T04:22:55;31.00;;;14.90;;
36351;SDS011;22382;44.768;17.206;2023-03-30T04:25:23;31.08;;;15.07;;
36351;SDS011;22382;44.768;17.206;2023-03-30T04:27:51;25.30;;;12.38;;
36351;SDS011;22382;44.768;17.206;2023-03-30T04:30:19;25.63;;;13.80;;
36351;SDS011;22382;44.768;17.206;2023-03-30T04:32:47;23.00;;;12.23;;
36351;SDS011;22382;44.768;17.206;2023-03-30T04:35:32;24.55;;;13.80;;
36351;SDS011;22382;44.768;17.206;2023-03-30T04:37:59;27.55;;;13.60;;
36351;SDS011;22382;44.768;17.206;2023-03-30T04:40:28;27.55;;;13.95;;
36351;SDS011;22382;44.768;17.206;2023-03-30T04:42:55;29.88;;;15.00;;
36351;SDS011;22382;44.768;17.206;2023-03-30T04:45:28;27.08;;;13.95;;
36351;SDS011;22382;44.768;17.206;2023-03-30T04:47:56;35.33;;;14.98;;
36351;SDS011;22382;44.768;17.206;2023-03-30T04:50:23;28.15;;;13.10;;
36351;SDS011;22382;44.768;17.206;2023-03-30T04:52:51;21.48;;;12.38;;
36351;SDS011;22382;44.768;17.206;2023-03-30T04:55:18;22.10;;;12.63;;
36351;SDS011;22382;44.768;17.206;2023-03-30T04:57:45;19.08;;;11.60;;
36351;SDS011;22382;44.768;17.206;2023-03-30T05:00:13;21.13;;;12.38;;
36351;SDS011;22382;44.768;17.206;2023-03-30T05:02:40;22.38;;;12.48;;
36351;SDS011;22382;44.768;17.206;2023-03-30T05:05:08;32.60;;;16.60;;
36351;SDS011;22382;44.768;17.206;2023-03-30T05:07:35;24.80;;;14.15;;
36351;SDS011;22382;44.768;17.206;2023-03-30T05:10:02;25.02;;;13.55;;
36351;SDS011;22382;44.768;17.206;2023-03-30T05:12:30;30.10;;;15.40;;
36351;SDS011;22382;44.768;17.206;2023-03-30T05:14:57;30.55;;;14.23;;
36351;SDS011;22382;44.768;17.206;2023-03-30T05:17:24;30.30;;;15.52;;
36351;SDS011;22382;44.768;17.206;2023-03-30T05:19:52;33.53;;;15.48;;
36351;SDS011;22382;44.768;17.206;2023-03-30T05:22:20;56.15;;;18.35;;
36351;SDS011;22382;44.768;17.206;2023-03-30T05:24:47;42.88;;;18.35;;
36351;SDS011;22382;44.768;17.206;2023-03-30T05:27:14;51.25;;;19.25;;
36351;SDS011;22382;44.768;17.206;2023-03-30T05:29:41;55.47;;;20.10;;
36351;SDS011;22382;44.768;17.206;2023-03-30T05:32:08;46.15;;;17.75;;
36351;SDS011;22382;44.768;17.206;2023-03-30T05:34:35;47.85;;;17.00;;
36351;SDS011;22382;44.768;17.206;2023-03-30T05:37:02;41.15;;;16.10;;
36351;SDS011;22382;44.768;17.206;2023-03-30T05:39:29;40.08;;;16.55;;
36351;SDS011;22382;44.768;17.206;2023-03-30T05:41:56;52.55;;;18.45;;
36351;SDS011;22382;44.768;17.206;2023-03-30T05:44:24;40.72;;;17.95;;
36351;SDS011;22382;44.768;17.206;2023-03-30T05:46:51;35.17;;;15.90;;
36351;SDS011;22382;44.768;17.206;2023-03-30T05:49:19;45.80;;;17.70;;
36351;SDS011;22382;44.768;17.206;2023-03-30T05:51:46;40.42;;;17.92;;
36351;SDS011;22382;44.768;17.206;2023-03-30T05:54:13;32.53;;;15.32;;
36351;SDS011;22382;44.768;17.206;2023-03-30T05:56:40;35.00;;;15.70;;
36351;SDS011;22382;44.768;17.206;2023-03-30T05:59:08;41.70;;;16.15;;
36351;SDS011;22382;44.768;17.206;2023-03-30T06:01:36;27.88;;;13.30;;
36351;SDS011;22382;44.768;17.206;2023-03-30T06:04:03;30.95;;;12.95;;
36351;SDS011;22382;44.768;17.206;2023-03-30T06:06:31;24.77;;;12.60;;
36351;SDS011;22382;44.768;17.206;2023-03-30T06:08:58;30.90;;;13.82;;
36351;SDS011;22382;44.768;17.206;2023-03-30T06:11:26;27.70;;;12.63;;
36351;SDS011;22382;44.768;17.206;2023-03-30T06:13:53;25.15;;;13.27;;
36351;SDS011;22382;44.768;17.206;2023-03-30T06:16:20;22.65;;;11.85;;
36351;SDS011;22382;44.768;17.206;2023-03-30T06:18:48;28.08;;;13.15;;
36351;SDS011;22382;44.768;17.206;2023-03-30T06:21:15;22.83;;;12.07;;
36351;SDS011;22382;44.768;17.206;2023-03-30T06:23:42;19.77;;;11.15;;
36351;SDS011;22382;44.768;17.206;2023-03-30T06:26:09;21.20;;;11.85;;
36351;SDS011;22382;44.768;17.206;2023-03-30T06:28:37;26.30;;;12.20;;
36351;SDS011;22382;44.768;17.206;2023-03-30T06:31:09;21.60;;;11.48;;
36351;SDS011;22382;44.768;17.206;2023-03-30T06:33:37;26.55;;;12.18;;
36351;SDS011;22382;44.768;17.206;2023-03-30T06:36:10;47.85;;;13.98;;
36351;SDS011;22382;44.768;17.206;2023-03-30T06:38:39;33.83;;;12.77;;
36351;SDS011;22382;44.768;17.206;2023-03-30T06:41:09;26.65;;;11.73;;
36351;SDS011;22382;44.768;17.206;2023-03-30T06:43:38;32.20;;;11.75;;
36351;SDS011;22382;44.768;17.206;2023-03-30T06:46:05;35.00;;;13.48;;
36351;SDS011;22382;44.768;17.206;2023-03-30T06:48:33;34.38;;;12.45;;
36351;SDS011;22382;44.768;17.206;2023-03-30T06:51:01;26.83;;;12.30;;
36351;SDS011;22382;44.768;17.206;2023-03-30T06:53:30;28.58;;;12.23;;
36351;SDS011;22382;44.768;17.206;2023-03-30T06:55:57;28.73;;;12.18;;
36351;SDS011;22382;44.768;17.206;2023-03-30T06:58:25;26.27;;;11.35;;
36351;SDS011;22382;44.768;17.206;2023-03-30T07:00:53;19.92;;;10.55;;
36351;SDS011;22382;44.768;17.206;2023-03-30T07:03:21;27.33;;;10.45;;
36351;SDS011;22382;44.768;17.206;2023-03-30T07:05:49;19.02;;;8.73;;
36351;SDS011;22382;44.768;17.206;2023-03-30T07:08:17;15.55;;;9.40;;
36351;SDS011;22382;44.768;17.206;2023-03-30T07:10:45;24.70;;;10.15;;
36351;SDS011;22382;44.768;17.206;2023-03-30T07:13:13;25.52;;;10.38;;
36351;SDS011;22382;44.768;17.206;2023-03-30T07:15:44;16.00;;;8.52;;
36351;SDS011;22382;44.768;17.206;2023-03-30T07:18:12;19.42;;;9.60;;
36351;SDS011;22382;44.768;17.206;2023-03-30T07:20:40;25.45;;;9.02;;
36351;SDS011;22382;44.768;17.206;2023-03-30T07:23:08;19.88;;;7.78;;
36351;SDS011;22382;44.768;17.206;2023-03-30T07:25:37;14.85;;;7.68;;
36351;SDS011;22382;44.768;17.206;2023-03-30T07:28:04;21.88;;;7.45;;
36351;SDS011;22382;44.768;17.206;2023-03-30T07:30:32;14.02;;;5.78;;
36351;SDS011;22382;44.768;17.206;2023-03-30T07:33:00;12.15;;;5.88;;
36351;SDS011;22382;44.768;17.206;2023-03-30T07:35:28;12.00;;;5.68;;
36351;SDS011;22382;44.768;17.206;2023-03-30T07:37:55;18.95;;;5.25;;
36351;SDS011;22382;44.768;17.206;2023-03-30T07:40:29;10.80;;;5.25;;
36351;SDS011;22382;44.768;17.206;2023-03-30T07:42:56;10.07;;;4.93;;
36351;SDS011;22382;44.768;17.206;2023-03-30T07:45:24;13.93;;;4.82;;
36351;SDS011;22382;44.768;17.206;2023-03-30T07:47:51;8.43;;;3.45;;
36351;SDS011;22382;44.768;17.206;2023-03-30T07:50:18;5.60;;;3.15;;
36351;SDS011;22382;44.768;17.206;2023-03-30T07:52:46;4.30;;;2.58;;
36351;SDS011;22382;44.768;17.206;2023-03-30T07:55:19;5.97;;;3.30;;
36351;SDS011;22382;44.768;17.206;2023-03-30T07:57:46;9.13;;;3.00;;
36351;SDS011;22382;44.768;17.206;2023-03-30T08:00:13;10.30;;;2.63;;
36351;SDS011;22382;44.768;17.206;2023-03-30T08:02:41;6.78;;;2.10;;
36351;SDS011;22382;44.768;17.206;2023-03-30T08:05:10;3.53;;;1.83;;
36351;SDS011;22382;44.768;17.206;2023-03-30T08:07:37;5.07;;;1.83;;
36351;SDS011;22382;44.768;17.206;2023-03-30T08:10:04;8.20;;;2.33;;
36351;SDS011;22382;44.768;17.206;2023-03-30T08:12:33;3.45;;;1.90;;
36351;SDS011;22382;44.768;17.206;2023-03-30T08:15:01;6.55;;;1.90;;
36351;SDS011;22382;44.768;17.206;2023-03-30T08:17:28;3.00;;;1.38;;
36351;SDS011;22382;44.768;17.206;2023-03-30T08:19:56;2.85;;;1.10;;
36351;SDS011;22382;44.768;17.206;2023-03-30T08:22:23;4.63;;;1.55;;
36351;SDS011;22382;44.768;17.206;2023-03-30T08:24:50;2.97;;;1.67;;
36351;SDS011;22382;44.768;17.206;2023-03-30T08:27:17;5.93;;;1.75;;
36351;SDS011;22382;44.768;17.206;2023-03-30T08:29:45;4.90;;;1.60;;
36351;SDS011;22382;44.768;17.206;2023-03-30T08:32:12;4.30;;;2.03;;
36351;SDS011;22382;44.768;17.206;2023-03-30T08:34:39;8.25;;;1.60;;
36351;SDS011;22382;44.768;17.206;2023-03-30T08:37:06;3.45;;;1.40;;
36351;SDS011;22382;44.768;17.206;2023-03-30T08:39:33;4.47;;;1.50;;
36351;SDS011;22382;44.768;17.206;2023-03-30T08:44:41;2.42;;;1.20;;
36351;SDS011;22382;44.768;17.206;2023-03-30T08:47:11;2.50;;;1.10;;
36351;SDS011;22382;44.768;17.206;2023-03-30T08:49:43;3.17;;;1.50;;
36351;SDS011;22382;44.768;17.206;2023-03-30T08:52:19;4.07;;;1.20;;
36351;SDS011;22382;44.768;17.206;2023-03-30T08:54:49;2.53;;;1.05;;
36351;SDS011;22382;44.768;17.206;2023-03-30T08:57:22;3.67;;;1.40;;
36351;SDS011;22382;44.768;17.206;2023-03-30T09:05:23;8.75;;;1.63;;
36351;SDS011;22382;44.768;17.206;2023-03-30T09:10:44;5.88;;;1.13;;
36351;SDS011;22382;44.768;17.206;2023-03-30T09:13:17;5.03;;;1.02;;
36351;SDS011;22382;44.768;17.206;2023-03-30T09:15:53;3.65;;;1.02;;
36351;SDS011;22382;44.768;17.206;2023-03-30T09:18:26;3.15;;;1.00;;
36351;SDS011;22382;44.768;17.206;2023-03-30T09:21:01;4.15;;;1.20;;
36351;SDS011;22382;44.768;17.206;2023-03-30T09:23:32;5.00;;;1.00;;
36351;SDS011;22382;44.768;17.206;2023-03-30T09:26:02;4.07;;;1.13;;
36351;SDS011;22382;44.768;17.206;2023-03-30T09:28:50;4.55;;;1.13;;
36351;SDS011;22382;44.768;17.206;2023-03-30T09:33:58;2.88;;;0.93;;
36351;SDS011;22382;44.768;17.206;2023-03-30T09:39:23;5.47;;;0.82;;
36351;SDS011;22382;44.768;17.206;2023-03-30T09:41:55;4.53;;;1.00;;
36351;SDS011;22382;44.768;17.206;2023-03-30T09:47:35;3.17;;;0.98;;
36351;SDS011;22382;44.768;17.206;2023-03-30T09:52:37;4.13;;;1.10;;
36351;SDS011;22382;44.768;17.206;2023-03-30T10:01:05;4.57;;;1.40;;
36351;SDS011;22382;44.768;17.206;2023-03-30T10:03:40;4.60;;;1.27;;
36351;SDS011;22382;44.768;17.206;2023-03-30T10:06:10;4.18;;;1.23;;
36351;SDS011;22382;44.768;17.206;2023-03-30T10:08:52;4.00;;;1.30;;
36351;SDS011;22382;44.768;17.206;2023-03-30T10:14:03;3.90;;;1.30;;
36351;SDS011;22382;44.768;17.206;2023-03-30T10:16:32;3.72;;;1.35;;
36351;SDS011;22382;44.768;17.206;2023-03-30T10:19:04;2.90;;;1.08;;
36351;SDS011;22382;44.768;17.206;2023-03-30T10:21:42;3.17;;;1.00;;
36351;SDS011;22382;44.768;17.206;2023-03-30T10:24:22;6.32;;;1.23;;
36351;SDS011;22382;44.768;17.206;2023-03-30T10:26:55;2.60;;;1.10;;
36351;SDS011;22382;44.768;17.206;2023-03-30T10:29:27;3.88;;;0.90;;
36351;SDS011;22382;44.768;17.206;2023-03-30T10:31:57;4.05;;;1.30;;
36351;SDS011;22382;44.768;17.206;2023-03-30T10:34:35;7.38;;;1.58;;
36351;SDS011;22382;44.768;17.206;2023-03-30T10:37:15;4.88;;;1.40;;
36351;SDS011;22382;44.768;17.206;2023-03-30T10:39:50;7.70;;;1.27;;
36351;SDS011;22382;44.768;17.206;2023-03-30T10:42:19;4.88;;;1.52;;
36351;SDS011;22382;44.768;17.206;2023-03-30T10:44:51;4.85;;;1.33;;
36351;SDS011;22382;44.768;17.206;2023-03-30T11:01:36;6.55;;;1.17;;
36351;SDS011;22382;44.768;17.206;2023-03-30T11:04:27;4.13;;;1.65;;
36351;SDS011;22382;44.768;17.206;2023-03-30T11:07:30;3.53;;;1.27;;
36351;SDS011;22382;44.768;17.206;2023-03-30T11:10:12;3.08;;;1.20;;
36351;SDS011;22382;44.768;17.206;2023-03-30T11:12:56;3.97;;;0.90;;
36351;SDS011;22382;44.768;17.206;2023-03-30T11:15:25;4.28;;;1.30;;
36351;SDS011;22382;44.768;17.206;2023-03-30T11:18:01;3.22;;;0.90;;
36351;SDS011;22382;44.768;17.206;2023-03-30T11:23:41;5.28;;;1.23;;
36351;SDS011;22382;44.768;17.206;2023-03-30T11:34:30;3.78;;;1.33;;
36351;SDS011;22382;44.768;17.206;2023-03-30T11:40:20;5.60;;;1.52;;
36351;SDS011;22382;44.768;17.206;2023-03-30T11:42:45;7.00;;;1.70;;
36351;SDS011;22382;44.768;17.206;2023-03-30T11:48:16;2.97;;;1.00;;
36351;SDS011;22382;44.768;17.206;2023-03-30T11:51:13;6.45;;;1.13;;
36351;SDS011;22382;44.768;17.206;2023-03-30T11:53:57;3.13;;;1.10;;
36351;SDS011;22382;44.768;17.206;2023-03-30T12:05:33;6.40;;;1.33;;
36351;SDS011;22382;44.768;17.206;2023-03-30T12:11:08;5.18;;;1.17;;
36351;SDS011;22382;44.768;17.206;2023-03-30T12:13:55;4.20;;;1.50;;
36351;SDS011;22382;44.768;17.206;2023-03-30T12:16:24;6.57;;;1.45;;
36351;SDS011;22382;44.768;17.206;2023-03-30T12:21:37;8.15;;;1.80;;
36351;SDS011;22382;44.768;17.206;2023-03-30T12:24:34;5.85;;;1.38;;
36351;SDS011;22382;44.768;17.206;2023-03-30T12:27:08;6.18;;;1.10;;
36351;SDS011;22382;44.768;17.206;2023-03-30T12:29:47;4.20;;;1.10;;
36351;SDS011;22382;44.768;17.206;2023-03-30T12:34:48;7.30;;;1.38;;
36351;SDS011;22382;44.768;17.206;2023-03-30T12:37:17;6.05;;;1.20;;
36351;SDS011;22382;44.768;17.206;2023-03-30T12:39:53;5.30;;;0.98;;
36351;SDS011;22382;44.768;17.206;2023-03-30T12:44:58;7.72;;;1.40;;
36351;SDS011;22382;44.768;17.206;2023-03-30T12:55:53;4.78;;;1.05;;
36351;SDS011;22382;44.768;17.206;2023-03-30T13:03:53;5.80;;;1.30;;
36351;SDS011;22382;44.768;17.206;2023-03-30T13:09:58;4.32;;;1.20;;
36351;SDS011;22382;44.768;17.206;2023-03-30T13:17:58;4.15;;;1.40;;
36351;SDS011;22382;44.768;17.206;2023-03-30T13:21:15;4.60;;;1.73;;
36351;SDS011;22382;44.768;17.206;2023-03-30T13:29:03;6.97;;;1.45;;
36351;SDS011;22382;44.768;17.206;2023-03-30T13:37:26;5.80;;;1.27;;
36351;SDS011;22382;44.768;17.206;2023-03-30T13:43:07;5.03;;;1.40;;
36351;SDS011;22382;44.768;17.206;2023-03-30T13:51:03;8.10;;;1.60;;
36351;SDS011;22382;44.768;17.206;2023-03-30T13:53:36;7.95;;;2.15;;
36351;SDS011;22382;44.768;17.206;2023-03-30T13:56:07;6.75;;;1.55;;
36351;SDS011;22382;44.768;17.206;2023-03-30T13:58:36;3.15;;;1.42;;
36351;SDS011;22382;44.768;17.206;2023-03-30T14:01:10;5.50;;;1.67;;
36351;SDS011;22382;44.768;17.206;2023-03-30T14:08:44;4.63;;;1.30;;
36351;SDS011;22382;44.768;17.206;2023-03-30T14:13:49;3.80;;;1.80;;
36351;SDS011;22382;44.768;17.206;2023-03-30T14:16:19;4.72;;;2.00;;
36351;SDS011;22382;44.768;17.206;2023-03-30T14:19:04;4.65;;;1.85;;
36351;SDS011;22382;44.768;17.206;2023-03-30T14:21:34;5.82;;;1.83;;
36351;SDS011;22382;44.768;17.206;2023-03-30T14:24:03;5.13;;;1.80;;
36351;SDS011;22382;44.768;17.206;2023-03-30T14:26:30;9.88;;;1.95;;
36351;SDS011;22382;44.768;17.206;2023-03-30T14:28:59;4.72;;;1.70;;
36351;SDS011;22382;44.768;17.206;2023-03-30T14:31:38;6.50;;;1.77;;
36351;SDS011;22382;44.768;17.206;2023-03-30T14:37:01;6.18;;;2.00;;
36351;SDS011;22382;44.768;17.206;2023-03-30T14:39:31;6.25;;;1.60;;
36351;SDS011;22382;44.768;17.206;2023-03-30T14:42:47;4.57;;;2.05;;
36351;SDS011;22382;44.768;17.206;2023-03-30T14:45:01;9.60;;;2.50;;
36351;SDS011;22382;44.768;17.206;2023-03-30T14:47:28;6.80;;;1.83;;
36351;SDS011;22382;44.768;17.206;2023-03-30T14:50:00;19.92;;;3.10;;
36351;SDS011;22382;44.768;17.206;2023-03-30T14:52:31;5.57;;;1.83;;
36351;SDS011;22382;44.768;17.206;2023-03-30T14:55:03;7.53;;;1.50;;
36351;SDS011;22382;44.768;17.206;2023-03-30T14:57:37;9.98;;;3.85;;
36351;SDS011;22382;44.768;17.206;2023-03-30T15:00:09;9.35;;;2.88;;
36351;SDS011;22382;44.768;17.206;2023-03-30T15:02:44;7.05;;;2.67;;
36351;SDS011;22382;44.768;17.206;2023-03-30T15:05:16;8.80;;;2.35;;
36351;SDS011;22382;44.768;17.206;2023-03-30T15:07:47;2.78;;;1.50;;
36351;SDS011;22382;44.768;17.206;2023-03-30T15:13:00;9.50;;;1.63;;
36351;SDS011;22382;44.768;17.206;2023-03-30T15:15:30;7.50;;;2.03;;
36351;SDS011;22382;44.768;17.206;2023-03-30T15:17:58;4.60;;;2.20;;
36351;SDS011;22382;44.768;17.206;2023-03-30T15:20:27;6.05;;;1.98;;
36351;SDS011;22382;44.768;17.206;2023-03-30T15:22:56;5.05;;;2.42;;
36351;SDS011;22382;44.768;17.206;2023-03-30T15:25:30;5.97;;;2.65;;
36351;SDS011;22382;44.768;17.206;2023-03-30T15:28:02;7.88;;;2.70;;
36351;SDS011;22382;44.768;17.206;2023-03-30T15:30:36;9.13;;;3.33;;
36351;SDS011;22382;44.768;17.206;2023-03-30T15:33:05;13.25;;;2.08;;
36351;SDS011;22382;44.768;17.206;2023-03-30T15:36:11;5.80;;;2.78;;
36351;SDS011;22382;44.768;17.206;2023-03-30T15:38:56;5.35;;;2.13;;
36351;SDS011;22382;44.768;17.206;2023-03-30T15:44:19;6.82;;;1.70;;
36351;SDS011;22382;44.768;17.206;2023-03-30T15:46:47;8.80;;;2.25;;
36351;SDS011;22382;44.768;17.206;2023-03-30T15:49:17;10.25;;;2.58;;
36351;SDS011;22382;44.768;17.206;2023-03-30T15:51:47;8.32;;;2.78;;
36351;SDS011;22382;44.768;17.206;2023-03-30T15:57:05;8.60;;;2.35;;
36351;SDS011;22382;44.768;17.206;2023-03-30T16:00:03;6.45;;;1.85;;
36351;SDS011;22382;44.768;17.206;2023-03-30T16:02:38;4.70;;;1.48;;
36351;SDS011;22382;44.768;17.206;2023-03-30T16:05:10;5.13;;;1.65;;
36351;SDS011;22382;44.768;17.206;2023-03-30T16:07:46;4.68;;;1.98;;
36351;SDS011;22382;44.768;17.206;2023-03-30T16:10:20;11.85;;;2.60;;
36351;SDS011;22382;44.768;17.206;2023-03-30T16:12:53;9.27;;;2.80;;
36351;SDS011;22382;44.768;17.206;2023-03-30T16:15:22;8.05;;;2.05;;
36351;SDS011;22382;44.768;17.206;2023-03-30T16:17:51;6.78;;;2.00;;
36351;SDS011;22382;44.768;17.206;2023-03-30T16:20:20;10.50;;;2.08;;
36351;SDS011;22382;44.768;17.206;2023-03-30T16:22:49;5.32;;;2.08;;
36351;SDS011;22382;44.768;17.206;2023-03-30T16:25:18;8.40;;;1.70;;
36351;SDS011;22382;44.768;17.206;2023-03-30T16:27:53;5.25;;;1.38;;
36351;SDS011;22382;44.768;17.206;2023-03-30T16:30:24;3.88;;;1.40;;
36351;SDS011;22382;44.768;17.206;2023-03-30T16:33:04;5.18;;;1.70;;
36351;SDS011;22382;44.768;17.206;2023-03-30T16:35:31;8.30;;;1.45;;
36351;SDS011;22382;44.768;17.206;2023-03-30T16:37:58;4.43;;;1.48;;
36351;SDS011;22382;44.768;17.206;2023-03-30T16:43:08;7.00;;;1.30;;
36351;SDS011;22382;44.768;17.206;2023-03-30T16:45:35;14.88;;;2.70;;
36351;SDS011;22382;44.768;17.206;2023-03-30T16:48:03;11.77;;;2.50;;
36351;SDS011;22382;44.768;17.206;2023-03-30T16:50:35;8.82;;;1.80;;
36351;SDS011;22382;44.768;17.206;2023-03-30T16:53:05;5.22;;;2.13;;
36351;SDS011;22382;44.768;17.206;2023-03-30T16:55:34;7.05;;;2.47;;
36351;SDS011;22382;44.768;17.206;2023-03-30T16:58:03;7.97;;;2.20;;
36351;SDS011;22382;44.768;17.206;2023-03-30T17:00:53;5.40;;;2.50;;
36351;SDS011;22382;44.768;17.206;2023-03-30T17:03:29;6.65;;;3.40;;
36351;SDS011;22382;44.768;17.206;2023-03-30T17:05:57;6.15;;;2.25;;
36351;SDS011;22382;44.768;17.206;2023-03-30T17:08:27;8.63;;;2.38;;
36351;SDS011;22382;44.768;17.206;2023-03-30T17:10:56;9.50;;;3.03;;
36351;SDS011;22382;44.768;17.206;2023-03-30T17:13:30;6.80;;;2.80;;
36351;SDS011;22382;44.768;17.206;2023-03-30T17:15:58;14.02;;;3.83;;
36351;SDS011;22382;44.768;17.206;2023-03-30T17:18:28;7.80;;;2.90;;
36351;SDS011;22382;44.768;17.206;2023-03-30T17:20:57;7.05;;;2.20;;
36351;SDS011;22382;44.768;17.206;2023-03-30T17:23:27;6.53;;;1.73;;
36351;SDS011;22382;44.768;17.206;2023-03-30T17:25:58;4.72;;;1.77;;
36351;SDS011;22382;44.768;17.206;2023-03-30T17:30:55;5.88;;;2.20;;
36351;SDS011;22382;44.768;17.206;2023-03-30T17:33:24;6.53;;;2.25;;
36351;SDS011;22382;44.768;17.206;2023-03-30T17:35:53;6.10;;;1.92;;
36351;SDS011;22382;44.768;17.206;2023-03-30T17:38:23;7.03;;;1.95;;
36351;SDS011;22382;44.768;17.206;2023-03-30T17:40:50;5.40;;;2.15;;
36351;SDS011;22382;44.768;17.206;2023-03-30T17:43:17;8.27;;;2.38;;
36351;SDS011;22382;44.768;17.206;2023-03-30T17:45:45;6.65;;;2.15;;
36351;SDS011;22382;44.768;17.206;2023-03-30T17:48:13;8.60;;;1.92;;
36351;SDS011;22382;44.768;17.206;2023-03-30T17:50:44;6.00;;;2.17;;
36351;SDS011;22382;44.768;17.206;2023-03-30T17:53:13;5.65;;;1.73;;